Time;durP1;ratioP1;P1;durP2;ratioP2;P2;SDS_P1;SDS_P2;PMS_P1;PMS_P2;Temp;Humidity;BMP_temperature;BMP_pressure;BME280_temperature;BME280_humidity;BME280_pressure;Samples;Min_cycle;Max_cycle;Signal;HPM_P1;HPM_P2
2023/04/07 00:02:03;;;;;;;16.65;11.05;;;5.40;99.90;;;;;;5113954;28;20384;-77
2023/04/07 00:04:29;;;;;;;17.38;11.35;;;5.30;99.90;;;;;;5107936;28;20024;-77
2023/04/07 00:06:55;;;;;;;17.00;11.00;;;5.30;99.90;;;;;;5114137;28;20031;-78
2023/04/07 00:09:21;;;;;;;15.18;10.27;;;5.30;99.90;;;;;;5114284;28;20023;-76
2023/04/07 00:11:47;;;;;;;18.08;10.90;;;5.30;99.90;;;;;;5113226;28;20193;-77
2023/04/07 00:14:13;;;;;;;13.88;10.40;;;5.30;99.90;;;;;;5110766;28;20384;-78
2023/04/07 00:16:38;;;;;;;14.52;10.20;;;5.30;99.90;;;;;;5112843;28;20044;-78
2023/04/07 00:19:04;;;;;;;13.73;10.20;;;5.40;99.90;;;;;;5104873;28;20047;-77
2023/04/07 00:21:30;;;;;;;15.60;9.95;;;5.30;99.90;;;;;;5094196;28;20080;-77
2023/04/07 00:23:55;;;;;;;13.43;9.43;;;5.30;99.90;;;;;;5108841;28;20023;-77
2023/04/07 00:26:21;;;;;;;12.48;9.70;;;5.30;99.90;;;;;;5113415;28;20028;-78
2023/04/07 00:28:47;;;;;;;14.93;10.10;;;5.30;99.90;;;;;;5094071;28;20024;-77
2023/04/07 00:31:13;;;;;;;13.65;9.23;;;5.30;99.90;;;;;;5107417;28;20032;-77
2023/04/07 00:33:38;;;;;;;15.75;10.02;;;5.30;99.90;;;;;;5111539;28;20031;-78
2023/04/07 00:36:04;;;;;;;15.02;10.00;;;5.30;99.90;;;;;;5113210;28;20345;-77
2023/04/07 00:38:30;;;;;;;13.85;9.55;;;5.30;99.90;;;;;;5100666;28;20043;-77
2023/04/07 00:40:59;;;;;;;13.63;9.43;;;5.30;99.90;;;;;;5098880;28;20020;-77
2023/04/07 00:43:25;;;;;;;14.85;10.30;;;5.30;99.90;;;;;;5094736;28;20036;-77
2023/04/07 00:45:52;;;;;;;14.52;9.40;;;5.40;99.90;;;;;;5092999;28;20097;-77
2023/04/07 00:48:18;;;;;;;15.55;9.73;;;5.40;99.90;;;;;;5102036;28;20188;-78
2023/04/07 00:50:44;;;;;;;15.05;9.23;;;5.40;99.90;;;;;;5103355;28;20331;-77
2023/04/07 00:53:11;;;;;;;12.73;8.98;;;5.40;99.90;;;;;;5100094;28;20051;-77
2023/04/07 00:55:36;;;;;;;13.98;8.80;;;5.30;99.90;;;;;;5094348;28;20495;-77
2023/04/07 00:58:04;;;;;;;13.93;9.20;;;5.30;99.90;;;;;;5104117;28;20027;-77
2023/04/07 01:00:34;;;;;;;17.00;9.63;;;5.40;99.90;;;;;;5101244;28;20160;-77
2023/04/07 01:03:17;;;;;;;15.65;10.93;;;5.40;99.90;;;;;;5094825;28;20496;-78
2023/04/07 01:06:04;;;;;;;12.43;9.20;;;5.30;99.90;;;;;;5092699;28;20036;-78
2023/04/07 01:08:37;;;;;;;14.75;9.45;;;5.30;99.90;;;;;;5104289;28;20039;-77
2023/04/07 01:11:41;;;;;;;16.23;10.15;;;5.30;99.90;;;;;;5109133;28;20070;-77
2023/04/07 01:14:10;;;;;;;13.00;9.25;;;5.20;99.90;;;;;;5105265;28;20023;-78
2023/04/07 01:16:56;;;;;;;17.17;10.77;;;5.20;99.90;;;;;;5103465;28;20151;-78
2023/04/07 01:19:38;;;;;;;14.80;10.07;;;5.20;99.90;;;;;;5112900;28;20059;-78
2023/04/07 01:22:14;;;;;;;17.67;10.32;;;5.20;99.90;;;;;;5106921;28;20498;-78
2023/04/07 01:25:01;;;;;;;13.90;9.80;;;5.20;99.90;;;;;;5100118;28;20074;-77
2023/04/07 01:27:45;;;;;;;14.48;10.00;;;5.20;99.90;;;;;;5098438;28;20063;-77
2023/04/07 01:30:12;;;;;;;13.40;9.35;;;5.10;99.90;;;;;;5111447;28;20032;-78
2023/04/07 01:32:40;;;;;;;15.20;10.52;;;5.20;99.90;;;;;;5094591;28;20081;-78
2023/04/07 01:35:11;;;;;;;16.30;10.75;;;5.20;99.90;;;;;;5099956;28;20043;-78
2023/04/07 01:37:37;;;;;;;14.70;10.70;;;5.10;99.90;;;;;;5105994;28;20023;-77
2023/04/07 01:40:06;;;;;;;13.88;10.43;;;5.10;99.90;;;;;;5093328;28;20028;-78
2023/04/07 01:42:33;;;;;;;15.70;10.07;;;5.20;99.90;;;;;;5097568;28;20042;-77
2023/04/07 01:45:00;;;;;;;15.80;10.82;;;5.20;99.90;;;;;;5102242;28;20307;-78
2023/04/07 01:47:29;;;;;;;16.45;10.68;;;5.20;99.90;;;;;;5091447;28;20081;-76
2023/04/07 01:49:57;;;;;;;18.55;11.20;;;5.30;99.90;;;;;;5093447;28;20134;-77
2023/04/07 01:52:27;;;;;;;17.10;10.52;;;5.30;99.90;;;;;;5099655;28;20036;-78
2023/04/07 01:54:53;;;;;;;15.65;10.93;;;5.30;99.90;;;;;;5073962;28;20032;-77
2023/04/07 01:57:19;;;;;;;15.10;10.30;;;5.30;99.90;;;;;;5099358;28;20040;-77
2023/04/07 01:59:46;;;;;;;14.90;10.25;;;5.30;99.90;;;;;;5111453;28;20024;-77
2023/04/07 02:02:11;;;;;;;14.30;9.88;;;5.30;99.90;;;;;;5111785;28;20024;-78
2023/04/07 02:04:51;;;;;;;15.98;10.82;;;5.30;99.90;;;;;;5099983;28;20032;-78
2023/04/07 02:07:31;;;;;;;15.85;10.18;;;5.30;99.90;;;;;;5099439;28;20031;-78
2023/04/07 02:10:01;;;;;;;13.13;10.13;;;5.30;99.90;;;;;;5109268;28;20369;-77
2023/04/07 02:12:28;;;;;;;14.95;10.82;;;5.30;99.90;;;;;;5094319;28;20157;-77
2023/04/07 02:14:55;;;;;;;15.80;9.38;;;5.30;99.90;;;;;;5110724;28;20483;-77
2023/04/07 02:17:23;;;;;;;17.10;10.57;;;5.30;99.90;;;;;;5091866;28;20118;-78
2023/04/07 02:19:51;;;;;;;15.10;10.43;;;5.30;99.90;;;;;;5092702;28;20477;-78
2023/04/07 02:22:17;;;;;;;15.93;10.70;;;5.30;99.90;;;;;;5090695;28;20024;-78
2023/04/07 02:24:43;;;;;;;17.58;11.25;;;5.40;99.90;;;;;;5094328;28;20035;-78
2023/04/07 02:27:09;;;;;;;14.50;10.65;;;5.40;99.90;;;;;;5111511;28;20031;-77
2023/04/07 02:29:34;;;;;;;13.98;9.52;;;5.40;99.90;;;;;;5104900;28;20034;-77
2023/04/07 02:32:00;;;;;;;16.63;11.10;;;5.40;99.90;;;;;;5112091;28;20031;-76
2023/04/07 02:34:27;;;;;;;15.45;10.35;;;5.50;99.90;;;;;;5094826;28;20021;-77
2023/04/07 02:36:53;;;;;;;14.00;10.32;;;5.50;99.90;;;;;;5097532;28;20054;-76
2023/04/07 02:39:18;;;;;;;13.43;10.13;;;5.50;99.90;;;;;;5111929;28;20020;-77
2023/04/07 02:41:44;;;;;;;15.02;10.55;;;5.50;99.90;;;;;;5123749;28;20171;-77
2023/04/07 02:44:09;;;;;;;16.88;10.10;;;5.50;99.90;;;;;;5094639;28;20407;-76
2023/04/07 02:46:35;;;;;;;15.23;9.98;;;5.50;99.90;;;;;;5105761;28;20039;-77
2023/04/07 02:49:01;;;;;;;13.40;9.65;;;5.50;99.90;;;;;;5106391;28;20473;-77
2023/04/07 02:51:26;;;;;;;15.05;10.25;;;5.50;99.90;;;;;;5117037;28;20464;-76
2023/04/07 02:53:52;;;;;;;13.50;9.52;;;5.50;99.90;;;;;;5101330;28;20028;-76
2023/04/07 02:56:17;;;;;;;14.98;10.25;;;5.50;99.90;;;;;;5099838;28;20488;-77
2023/04/07 02:58:43;;;;;;;15.85;10.90;;;5.50;99.90;;;;;;5105583;28;20031;-78
2023/04/07 03:01:09;;;;;;;16.90;10.68;;;5.60;99.90;;;;;;5106947;28;20356;-79
2023/04/07 03:03:34;;;;;;;16.70;11.18;;;5.50;99.90;;;;;;5091760;28;20027;-78
2023/04/07 03:06:00;;;;;;;17.80;10.70;;;5.60;99.90;;;;;;5099922;28;20032;-77
2023/04/07 03:08:26;;;;;;;16.77;10.88;;;5.60;99.90;;;;;;5108952;28;20097;-77
2023/04/07 03:10:52;;;;;;;16.50;10.80;;;5.70;99.90;;;;;;5098600;28;20357;-78
2023/04/07 03:13:18;;;;;;;17.05;11.10;;;5.70;99.90;;;;;;5103246;28;20488;-77
2023/04/07 03:15:44;;;;;;;13.43;9.35;;;5.70;99.90;;;;;;5092330;28;20028;-76
2023/04/07 03:18:10;;;;;;;16.23;9.55;;;5.60;99.90;;;;;;5096827;28;20031;-77
2023/04/07 03:20:36;;;;;;;14.23;10.05;;;5.60;99.90;;;;;;5100993;28;20099;-77
2023/04/07 03:23:02;;;;;;;15.27;10.20;;;5.60;99.90;;;;;;5096373;28;20036;-78
2023/04/07 03:25:28;;;;;;;13.63;10.07;;;5.60;99.90;;;;;;5101326;28;20493;-76
2023/04/07 03:27:53;;;;;;;15.48;10.88;;;5.60;99.90;;;;;;5110949;28;20146;-78
2023/04/07 03:30:19;;;;;;;17.45;10.60;;;5.60;99.90;;;;;;5101241;28;20028;-78
2023/04/07 03:32:45;;;;;;;16.60;11.40;;;5.60;99.90;;;;;;5095497;28;20024;-78
2023/04/07 03:35:10;;;;;;;15.45;10.35;;;5.60;99.90;;;;;;5081929;28;20020;-78
2023/04/07 03:37:36;;;;;;;16.85;10.68;;;5.60;99.90;;;;;;5111081;28;20444;-77
2023/04/07 03:40:02;;;;;;;15.15;10.50;;;5.70;99.90;;;;;;5106794;28;20028;-79
2023/04/07 03:42:27;;;;;;;16.45;11.52;;;5.70;99.90;;;;;;5099536;28;20036;-76
2023/04/07 03:44:53;;;;;;;14.05;10.02;;;5.70;99.90;;;;;;5096202;28;20035;-79
2023/04/07 03:47:19;;;;;;;16.23;11.68;;;5.70;99.90;;;;;;5104049;28;20028;-79
2023/04/07 03:49:45;;;;;;;15.98;11.82;;;5.70;99.90;;;;;;5100537;28;20662;-79
2023/04/07 03:52:10;;;;;;;16.38;11.18;;;5.70;99.90;;;;;;5094913;28;20065;-79
2023/04/07 03:54:36;;;;;;;17.40;11.85;;;5.70;99.90;;;;;;5095137;28;20039;-79
2023/04/07 03:57:02;;;;;;;15.85;11.55;;;5.70;99.90;;;;;;5103014;28;20057;-79
2023/04/07 03:59:27;;;;;;;13.95;9.82;;;5.70;99.90;;;;;;5099528;28;20465;-76
2023/04/07 04:01:53;;;;;;;16.58;10.38;;;5.70;99.90;;;;;;5107551;28;20553;-82
2023/04/07 04:04:18;;;;;;;13.30;10.10;;;5.70;99.90;;;;;;5114579;28;20384;-81
2023/04/07 04:06:44;;;;;;;14.55;10.98;;;5.80;99.90;;;;;;5113704;28;20043;-81
2023/04/07 04:09:10;;;;;;;16.20;11.20;;;5.80;99.90;;;;;;5102569;28;20024;-79
2023/04/07 04:11:36;;;;;;;16.05;10.95;;;5.80;99.90;;;;;;5103656;28;20060;-80
2023/04/07 04:14:01;;;;;;;14.80;9.82;;;5.80;99.90;;;;;;5103741;28;20035;-81
2023/04/07 04:16:27;;;;;;;15.95;10.82;;;5.80;99.90;;;;;;5111464;28;20031;-75
2023/04/07 04:18:53;;;;;;;14.23;10.85;;;5.90;99.90;;;;;;5100485;28;20377;-78
2023/04/07 04:21:18;;;;;;;17.60;11.05;;;5.90;99.90;;;;;;5095379;28;20032;-78
2023/04/07 04:23:44;;;;;;;14.75;10.27;;;5.90;99.90;;;;;;5103583;28;20159;-76
2023/04/07 04:26:09;;;;;;;14.18;10.25;;;5.90;99.90;;;;;;5101189;28;20090;-77
2023/04/07 04:28:35;;;;;;;14.98;10.63;;;5.90;99.90;;;;;;5093250;28;20036;-77
2023/04/07 04:31:01;;;;;;;17.38;10.68;;;5.90;99.90;;;;;;5100126;28;20020;-77
2023/04/07 04:33:27;;;;;;;14.57;10.90;;;5.80;99.90;;;;;;5093931;28;20118;-77
2023/04/07 04:35:52;;;;;;;15.30;10.35;;;5.90;99.90;;;;;;5093271;28;20369;-77
2023/04/07 04:38:18;;;;;;;13.70;10.23;;;5.80;99.90;;;;;;5110576;28;20125;-78
2023/04/07 04:40:44;;;;;;;14.43;10.35;;;5.80;99.90;;;;;;5102545;28;20027;-78
2023/04/07 04:43:09;;;;;;;16.55;11.02;;;5.80;99.90;;;;;;5109390;28;20385;-78
2023/04/07 04:45:35;;;;;;;14.57;11.23;;;5.80;99.90;;;;;;5097862;28;20023;-73
2023/04/07 04:48:01;;;;;;;17.85;11.80;;;5.70;99.90;;;;;;5102149;28;20023;-73
2023/04/07 04:50:26;;;;;;;16.23;11.35;;;5.70;99.90;;;;;;5093973;28;20048;-81
2023/04/07 04:52:52;;;;;;;16.38;11.38;;;5.70;99.90;;;;;;5094848;28;20396;-72
2023/04/07 04:55:18;;;;;;;18.10;11.55;;;5.70;99.90;;;;;;5113046;28;20028;-73
2023/04/07 04:57:43;;;;;;;18.75;11.68;;;5.70;99.90;;;;;;5103806;28;20176;-72
2023/04/07 05:00:10;;;;;;;16.15;11.13;;;5.70;99.90;;;;;;5100452;28;20025;-72
2023/04/07 05:02:36;;;;;;;18.33;12.25;;;5.70;99.90;;;;;;5092797;28;20043;-74
2023/04/07 05:05:01;;;;;;;20.02;13.02;;;5.60;99.90;;;;;;5094146;28;20035;-73
2023/04/07 05:07:27;;;;;;;17.65;11.88;;;5.60;99.90;;;;;;5094190;28;20078;-79
2023/04/07 05:09:53;;;;;;;17.45;12.18;;;5.60;99.90;;;;;;5094333;28;20426;-73
2023/04/07 05:12:18;;;;;;;15.98;11.68;;;5.60;99.90;;;;;;5093457;28;20031;-74
2023/04/07 05:14:44;;;;;;;21.02;11.82;;;5.60;99.90;;;;;;5092388;28;20265;-74
2023/04/07 05:17:10;;;;;;;16.55;10.95;;;5.60;99.90;;;;;;5106453;28;20036;-73
2023/04/07 05:19:35;;;;;;;16.33;10.95;;;5.60;99.90;;;;;;5103578;28;20379;-73
2023/04/07 05:22:01;;;;;;;19.00;12.90;;;5.60;99.90;;;;;;5101022;28;20395;-75
2023/04/07 05:24:28;;;;;;;20.92;13.48;;;5.60;99.90;;;;;;5101935;28;20069;-74
2023/04/07 05:26:53;;;;;;;17.10;12.55;;;5.60;99.90;;;;;;5095392;28;20036;-73
2023/04/07 05:29:19;;;;;;;18.27;11.73;;;5.60;99.90;;;;;;5095952;28;20370;-72
2023/04/07 05:31:45;;;;;;;20.73;12.38;;;5.60;99.90;;;;;;5100514;28;20115;-74
2023/04/07 05:34:10;;;;;;;16.83;11.52;;;5.60;99.90;;;;;;5100409;28;20055;-72
2023/04/07 05:36:36;;;;;;;18.83;12.05;;;5.60;99.90;;;;;;5099967;28;20031;-74
2023/04/07 05:39:01;;;;;;;18.63;11.80;;;5.70;99.90;;;;;;5103429;28;20055;-74
2023/04/07 05:41:27;;;;;;;17.95;11.30;;;5.70;99.90;;;;;;5091759;28;20118;-76
2023/04/07 05:43:52;;;;;;;14.73;10.82;;;5.80;99.90;;;;;;5093384;28;20415;-75
2023/04/07 05:46:18;;;;;;;18.20;12.65;;;5.80;99.90;;;;;;5091332;28;20028;-75
2023/04/07 05:48:44;;;;;;;15.02;11.07;;;5.80;99.90;;;;;;5091874;28;20058;-75
2023/04/07 05:51:10;;;;;;;20.15;11.07;;;5.90;99.90;;;;;;5101662;28;20457;-72
2023/04/07 05:53:35;;;;;;;14.82;11.60;;;5.90;99.90;;;;;;5102240;28;20074;-74
2023/04/07 05:56:01;;;;;;;14.98;10.80;;;6.00;99.90;;;;;;5103624;28;20032;-73
2023/04/07 05:58:26;;;;;;;18.17;12.25;;;6.00;99.90;;;;;;5092016;28;20596;-74
2023/04/07 06:00:52;;;;;;;13.40;9.88;;;6.10;99.90;;;;;;5108407;28;20043;-74
2023/04/07 06:03:18;;;;;;;16.60;11.40;;;6.20;99.90;;;;;;5107402;28;20024;-69
2023/04/07 06:05:46;;;;;;;16.98;11.70;;;6.20;99.90;;;;;;5093969;28;20051;-76
2023/04/07 06:08:12;;;;;;;14.52;10.55;;;6.30;99.90;;;;;;5095698;28;20028;-77
2023/04/07 06:10:40;;;;;;;14.65;10.13;;;6.30;99.90;;;;;;5095116;28;20046;-79
2023/04/07 06:13:05;;;;;;;14.80;10.45;;;6.40;99.90;;;;;;5101896;28;20464;-79
2023/04/07 06:15:31;;;;;;;14.45;10.50;;;6.40;99.90;;;;;;5099767;28;20049;-78
2023/04/07 06:17:57;;;;;;;14.48;10.43;;;6.50;99.90;;;;;;5097637;28;20102;-79
2023/04/07 06:20:23;;;;;;;14.93;10.50;;;6.50;99.90;;;;;;5101557;28;20035;-81
2023/04/07 06:22:48;;;;;;;15.13;9.43;;;6.60;99.90;;;;;;5097166;28;20026;-84
2023/04/07 06:25:14;;;;;;;12.82;9.30;;;6.60;99.90;;;;;;5101943;28;20023;-80
2023/04/07 06:27:40;;;;;;;14.90;10.13;;;6.70;99.90;;;;;;5097736;28;20034;-78
2023/04/07 06:30:06;;;;;;;15.00;11.38;;;6.80;99.90;;;;;;5100281;28;20024;-79
2023/04/07 06:32:32;;;;;;;13.57;10.02;;;6.80;99.90;;;;;;5096929;28;20107;-78
2023/04/07 06:34:57;;;;;;;12.52;9.68;;;6.90;99.90;;;;;;5098957;28;20452;-80
2023/04/07 06:39:59;;;;;;;13.65;10.18;;;7.00;99.90;;;;;;5267850;22;20068;-78
2023/04/07 06:42:24;;;;;;;14.75;10.52;;;7.10;99.90;;;;;;5002570;28;20038;-80
2023/04/07 06:44:50;;;;;;;13.90;10.52;;;7.20;99.90;;;;;;4999666;28;20022;-77
2023/04/07 06:47:15;;;;;;;15.68;10.10;;;7.20;99.90;;;;;;5001081;28;20033;-78
2023/04/07 06:49:41;;;;;;;18.02;10.65;;;7.30;99.90;;;;;;5017634;28;20022;-76
2023/04/07 06:52:07;;;;;;;14.20;10.38;;;7.30;99.90;;;;;;5011931;28;20021;-76
2023/04/07 06:54:32;;;;;;;14.45;9.52;;;7.40;99.90;;;;;;5010804;28;20439;-83
2023/04/07 06:56:58;;;;;;;14.00;10.00;;;7.50;99.90;;;;;;5000014;28;20343;-84
2023/04/07 06:59:24;;;;;;;14.75;10.10;;;7.50;99.90;;;;;;5007874;28;20048;-80
2023/04/07 07:01:49;;;;;;;13.82;9.70;;;7.60;99.90;;;;;;4993605;28;20025;-78
2023/04/07 07:04:15;;;;;;;14.30;10.43;;;7.70;99.90;;;;;;5004979;28;20034;-77
2023/04/07 07:06:40;;;;;;;15.15;9.25;;;7.80;99.90;;;;;;4977785;28;20066;-76
2023/04/07 07:09:06;;;;;;;12.75;10.23;;;7.90;99.90;;;;;;4996189;28;20030;-79
2023/04/07 07:11:32;;;;;;;13.82;9.15;;;8.00;99.90;;;;;;5010770;28;20435;-78
2023/04/07 07:13:57;;;;;;;13.65;9.57;;;8.10;99.90;;;;;;5010368;28;20115;-75
2023/04/07 07:16:23;;;;;;;17.77;10.23;;;8.20;99.90;;;;;;4992058;28;20042;-80
2023/04/07 07:18:50;;;;;;;11.80;8.88;;;8.30;99.90;;;;;;4997950;28;20036;-75
2023/04/07 07:21:19;;;;;;;14.20;8.82;;;8.40;99.90;;;;;;4996822;28;20030;-77
2023/04/07 07:23:45;;;;;;;13.18;9.30;;;8.50;99.90;;;;;;5009306;28;20078;-76
2023/04/07 07:26:11;;;;;;;11.80;8.73;;;8.50;99.90;;;;;;5010529;28;20080;-77
2023/04/07 07:28:36;;;;;;;11.90;9.02;;;8.70;99.90;;;;;;5012525;28;20049;-77
2023/04/07 07:31:13;;;;;;;13.13;9.18;;;8.70;99.90;;;;;;5010028;28;20459;-76
2023/04/07 07:33:40;;;;;;;11.68;8.23;;;8.80;99.90;;;;;;5003992;28;20104;-77
2023/04/07 07:36:06;;;;;;;11.65;8.32;;;8.80;99.90;;;;;;5014967;28;20033;-79
2023/04/07 07:38:32;;;;;;;14.25;8.93;;;8.90;99.90;;;;;;5011567;28;20195;-80
2023/04/07 07:40:58;;;;;;;11.35;8.48;;;9.00;99.90;;;;;;5011481;28;20046;-76
2023/04/07 07:43:23;;;;;;;10.63;8.35;;;9.00;99.90;;;;;;5014097;28;20675;-82
2023/04/07 07:45:49;;;;;;;9.23;7.53;;;8.90;99.90;;;;;;5013544;28;20034;-83
2023/04/07 07:48:15;;;;;;;11.85;8.23;;;8.90;99.90;;;;;;5010696;28;20038;-82
2023/04/07 07:50:41;;;;;;;11.20;8.75;;;8.90;99.90;;;;;;5012620;28;20536;-77
2023/04/07 07:53:07;;;;;;;12.75;8.50;;;8.90;99.90;;;;;;5016073;28;20041;-81
2023/04/07 07:55:32;;;;;;;13.32;8.13;;;8.80;99.90;;;;;;5010749;28;20026;-81
2023/04/07 07:57:58;;;;;;;12.02;9.40;;;8.70;99.90;;;;;;5022534;28;20034;-81
2023/04/07 08:00:23;;;;;;;12.65;9.45;;;8.70;99.90;;;;;;5019642;28;20036;-78
2023/04/07 08:02:49;;;;;;;13.50;8.57;;;8.60;99.90;;;;;;5003433;28;20034;-81
2023/04/07 08:05:14;;;;;;;13.30;9.40;;;8.50;99.90;;;;;;4993820;28;20026;-80
2023/04/07 08:07:41;;;;;;;11.75;8.38;;;8.50;99.90;;;;;;4991643;28;20031;-80
2023/04/07 08:10:07;;;;;;;13.80;9.52;;;8.60;99.90;;;;;;4990267;28;20035;-80
2023/04/07 08:12:33;;;;;;;11.73;9.48;;;8.60;99.90;;;;;;5009722;28;20177;-81
2023/04/07 08:14:59;;;;;;;12.27;9.40;;;8.70;99.90;;;;;;5003223;28;20030;-81
2023/04/07 08:17:24;;;;;;;13.23;9.98;;;8.80;99.90;;;;;;5007044;28;20041;-79
2023/04/07 08:19:50;;;;;;;12.27;9.52;;;9.10;99.90;;;;;;4997680;28;20115;-76
2023/04/07 08:22:18;;;;;;;11.00;8.95;;;9.30;99.90;;;;;;5016820;28;20478;-82
2023/04/07 08:24:44;;;;;;;12.32;8.60;;;9.40;99.90;;;;;;5020824;28;20044;-80
2023/04/07 08:27:11;;;;;;;11.93;7.75;;;9.70;99.90;;;;;;4999464;28;20474;-76
2023/04/07 08:29:36;;;;;;;10.88;7.63;;;10.00;99.90;;;;;;5020884;28;20331;-77
2023/04/07 08:32:02;;;;;;;9.45;7.20;;;10.30;99.90;;;;;;5011052;28;20041;-77
2023/04/07 08:34:27;;;;;;;9.60;6.20;;;10.60;99.90;;;;;;5004903;28;20535;-77
2023/04/07 08:36:53;;;;;;;7.18;5.93;;;10.70;99.90;;;;;;5003752;28;20121;-77
2023/04/07 08:39:18;;;;;;;9.18;6.60;;;10.90;99.90;;;;;;4996252;28;20034;-76
2023/04/07 08:41:47;;;;;;;7.65;5.95;;;11.10;99.90;;;;;;4999267;28;20324;-77
2023/04/07 08:44:14;;;;;;;7.68;5.43;;;10.90;99.90;;;;;;4995463;28;20030;-76
2023/04/07 08:46:40;;;;;;;8.73;6.47;;;11.00;99.90;;;;;;5001652;28;20152;-77
2023/04/07 08:49:12;;;;;;;11.35;6.32;;;11.10;99.90;;;;;;5011861;28;20068;-76
2023/04/07 08:51:47;;;;;;;6.95;6.00;;;11.20;99.90;;;;;;5016082;28;20397;-78
2023/04/07 08:54:15;;;;;;;8.00;6.50;;;11.30;99.90;;;;;;5007637;28;20027;-77
2023/04/07 08:56:41;;;;;;;7.85;5.88;;;11.10;99.90;;;;;;5006646;28;20091;-76
2023/04/07 08:59:12;;;;;;;8.73;5.35;;;11.10;99.90;;;;;;4994387;28;20116;-76
2023/04/07 09:01:39;;;;;;;8.57;6.15;;;11.20;99.90;;;;;;5011860;28;20040;-77
2023/04/07 09:04:08;;;;;;;9.70;6.57;;;11.20;99.90;;;;;;5000569;28;20058;-76
2023/04/07 09:06:34;;;;;;;8.70;6.10;;;11.20;99.90;;;;;;5012340;28;20042;-77
2023/04/07 09:09:01;;;;;;;7.03;5.63;;;11.30;99.90;;;;;;5012571;28;20537;-78
2023/04/07 09:11:27;;;;;;;9.40;6.55;;;11.40;99.90;;;;;;4996972;28;20586;-77
2023/04/07 09:13:54;;;;;;;11.60;6.38;;;11.40;99.90;;;;;;5008358;28;20030;-77
2023/04/07 09:16:20;;;;;;;8.52;5.85;;;11.40;99.90;;;;;;5011593;28;20053;-77
2023/04/07 09:18:46;;;;;;;12.32;6.95;;;11.40;99.90;;;;;;5001239;28;20451;-77
2023/04/07 09:21:12;;;;;;;7.32;5.22;;;11.40;99.90;;;;;;5002888;28;20026;-77
2023/04/07 09:23:40;;;;;;;9.73;6.60;;;11.50;99.90;;;;;;5006193;28;20390;-77
2023/04/07 09:26:23;;;;;;;7.90;5.75;;;11.70;99.90;;;;;;4997745;28;20554;-76
2023/04/07 09:28:56;;;;;;;9.60;5.70;;;11.80;99.90;;;;;;5002366;28;20087;-77
2023/04/07 09:31:42;;;;;;;10.18;6.07;;;11.90;99.90;;;;;;5011293;28;20108;-76
2023/04/07 09:34:35;;;;;;;12.82;6.32;;;12.00;99.90;;;;;;5011870;28;20087;-75
2023/04/07 09:37:02;;;;;;;8.88;6.15;;;12.20;99.90;;;;;;5013090;28;20425;-76
2023/04/07 09:39:27;;;;;;;8.70;6.00;;;12.30;99.90;;;;;;5012002;28;20104;-76
2023/04/07 09:41:53;;;;;;;7.82;5.38;;;12.40;99.90;;;;;;5011849;28;20057;-76
2023/04/07 09:44:23;;;;;;;8.50;5.88;;;12.50;99.90;;;;;;5012258;28;20402;-77
2023/04/07 09:46:54;;;;;;;11.60;6.40;;;12.70;99.90;;;;;;5005543;28;20335;-76
2023/04/07 09:49:20;;;;;;;7.28;5.50;;;13.00;99.90;;;;;;5008193;28;20494;-76
2023/04/07 09:51:57;;;;;;;9.52;5.90;;;13.30;99.90;;;;;;5011723;28;20519;-76
2023/04/07 09:54:41;;;;;;;8.38;5.70;;;13.50;99.90;;;;;;5011944;28;20022;-75
2023/04/07 09:57:08;;;;;;;9.45;6.20;;;13.80;99.90;;;;;;5011605;28;20038;-75
2023/04/07 09:59:39;;;;;;;8.95;5.90;;;14.00;99.90;;;;;;5012199;28;20529;-76
2023/04/07 10:02:06;;;;;;;8.55;6.28;;;14.00;99.90;;;;;;5010234;28;20033;-76
2023/04/07 10:04:32;;;;;;;9.63;5.63;;;14.10;99.90;;;;;;5009089;28;20045;-76
2023/04/07 10:06:59;;;;;;;8.25;5.60;;;14.00;99.90;;;;;;5012060;28;20034;-76
2023/04/07 10:09:28;;;;;;;9.85;5.50;;;13.90;99.90;;;;;;5010093;28;20065;-76
2023/04/07 10:11:56;;;;;;;10.10;6.50;;;13.90;99.90;;;;;;5011335;28;20033;-78
2023/04/07 10:14:26;;;;;;;10.48;6.57;;;13.90;99.90;;;;;;4985349;28;20265;-76
2023/04/07 10:16:53;;;;;;;6.53;4.95;;;13.90;99.90;;;;;;4998432;28;20408;-77
2023/04/07 10:19:20;;;;;;;11.07;5.65;;;13.70;99.90;;;;;;4991141;28;20046;-76
2023/04/07 10:21:49;;;;;;;11.18;5.90;;;13.70;99.90;;;;;;5011030;28;20117;-78
2023/04/07 10:24:35;;;;;;;11.63;6.93;;;13.60;99.90;;;;;;5011297;28;20489;-77
2023/04/07 10:27:06;;;;;;;10.13;5.85;;;13.60;99.90;;;;;;5010447;28;20091;-77
2023/04/07 10:29:36;;;;;;;8.60;5.90;;;13.50;99.90;;;;;;5001210;28;20041;-77
2023/04/07 10:32:02;;;;;;;;;;;13.40;99.90;;;;;;5011804;28;20546;-77
2023/04/07 10:34:47;;;;;;;9.23;5.72;;;13.50;99.90;;;;;;4994789;28;19983;-77
2023/04/07 10:37:13;;;;;;;8.27;5.93;;;13.50;99.90;;;;;;5006030;28;20355;-76
2023/04/07 10:39:39;;;;;;;9.00;4.90;;;13.50;99.90;;;;;;4993188;28;20514;-77
2023/04/07 10:42:05;;;;;;;7.95;5.20;;;13.60;99.90;;;;;;5009980;28;20403;-78
2023/04/07 10:44:40;;;;;;;9.57;4.80;;;13.70;99.90;;;;;;5011032;28;20033;-76
2023/04/07 10:47:06;;;;;;;12.65;5.93;;;13.80;99.90;;;;;;5011264;28;20542;-77
2023/04/07 10:49:33;;;;;;;10.73;5.47;;;13.80;99.90;;;;;;5002598;28;20026;-77
2023/04/07 10:52:11;;;;;;;6.35;5.43;;;13.80;99.90;;;;;;5011219;28;20072;-77
2023/04/07 10:54:37;;;;;;;7.72;5.38;;;13.90;99.90;;;;;;5006197;28;20033;-77
2023/04/07 10:57:07;;;;;;;7.15;4.80;;;13.90;99.90;;;;;;4993743;28;20309;-77
2023/04/07 10:59:33;;;;;;;9.50;5.60;;;13.80;99.90;;;;;;5011122;28;20936;-76
2023/04/07 11:02:11;;;;;;;9.15;5.45;;;13.90;99.90;;;;;;5010810;28;20038;-77
2023/04/07 11:04:38;;;;;;;11.73;5.78;;;14.00;99.90;;;;;;4993765;28;20034;-77
2023/04/07 11:07:03;;;;;;;8.25;5.70;;;14.00;99.90;;;;;;5010799;28;20375;-77
2023/04/07 11:09:29;;;;;;;6.47;4.65;;;14.10;99.90;;;;;;5010459;28;20041;-76
2023/04/07 11:11:55;;;;;;;8.18;5.55;;;14.20;99.90;;;;;;5006777;28;20033;-76
2023/04/07 11:14:28;;;;;;;7.70;4.60;;;14.40;99.90;;;;;;5010641;28;20032;-77
2023/04/07 11:16:53;;;;;;;9.05;5.78;;;14.60;99.90;;;;;;5010647;28;20022;-75
2023/04/07 11:19:19;;;;;;;7.53;4.88;;;14.80;99.90;;;;;;5010971;28;20030;-76
2023/04/07 11:21:45;;;;;;;6.60;4.35;;;15.00;99.60;;;;;;5010840;28;20359;-76
2023/04/07 11:24:31;;;;;;;8.02;4.07;;;15.10;99.70;;;;;;5011355;28;20057;-75
2023/04/07 11:26:57;;;;;;;6.53;4.53;;;15.20;99.40;;;;;;5006687;28;20459;-75
2023/04/07 11:29:31;;;;;;;6.40;4.20;;;15.30;98.80;;;;;;5010158;28;20034;-73
2023/04/07 11:31:58;;;;;;;7.15;4.63;;;15.20;99.20;;;;;;5010411;28;20501;-74
2023/04/07 11:34:30;;;;;;;5.63;4.30;;;15.00;98.90;;;;;;5010368;28;20034;-73
2023/04/07 11:36:58;;;;;;;8.13;4.75;;;14.70;99.30;;;;;;5009768;28;20479;-75
2023/04/07 11:39:30;;;;;;;7.50;4.20;;;14.40;99.60;;;;;;5010609;28;20073;-74
2023/04/07 11:41:56;;;;;;;7.00;3.38;;;14.10;99.90;;;;;;5009933;28;20123;-73
2023/04/07 11:44:22;;;;;;;11.77;5.07;;;14.00;99.90;;;;;;5006249;28;20030;-73
2023/04/07 11:46:57;;;;;;;9.40;4.80;;;14.00;99.80;;;;;;5010523;28;20125;-73
2023/04/07 11:49:25;;;;;;;7.20;4.47;;;13.80;99.90;;;;;;5009568;28;20121;-75
2023/04/07 11:52:01;;;;;;;7.85;5.25;;;13.70;99.90;;;;;;5010419;28;20025;-73
2023/04/07 11:54:39;;;;;;;8.00;5.22;;;13.60;99.90;;;;;;5012069;28;20499;-72
2023/04/07 11:57:04;;;;;;;8.45;5.50;;;13.40;99.90;;;;;;5014314;28;20084;-73
2023/04/07 11:59:31;;;;;;;10.07;6.00;;;13.20;99.90;;;;;;5014153;28;20029;-73
2023/04/07 12:01:57;;;;;;;8.60;5.45;;;12.90;99.90;;;;;;5008587;28;20164;-73
2023/04/07 12:04:22;;;;;;;10.63;6.00;;;12.70;99.90;;;;;;5013830;28;20041;-72
2023/04/07 12:06:48;;;;;;;10.10;5.68;;;12.50;99.90;;;;;;5013923;28;20466;-73
2023/04/07 12:09:28;;;;;;;8.75;5.55;;;12.40;99.90;;;;;;5014094;28;20478;-72
2023/04/07 12:11:55;;;;;;;12.25;6.43;;;12.30;99.90;;;;;;5013792;28;20029;-73
2023/04/07 12:14:22;;;;;;;9.23;5.97;;;12.30;99.90;;;;;;5012004;28;20030;-72
2023/04/07 12:16:47;;;;;;;10.55;7.15;;;12.10;99.90;;;;;;4995567;28;20382;-72
2023/04/07 12:19:13;;;;;;;10.25;6.82;;;12.00;99.90;;;;;;4992815;28;20030;-73
2023/04/07 12:21:39;;;;;;;13.38;6.60;;;11.70;99.90;;;;;;5012976;28;20026;-73
2023/04/07 12:24:04;;;;;;;8.95;6.75;;;11.30;99.90;;;;;;5004834;28;20026;-72
2023/04/07 12:26:30;;;;;;;11.13;6.78;;;10.90;99.90;;;;;;5012145;28;20041;-73
2023/04/07 12:28:57;;;;;;;8.48;5.30;;;;;;;;;;5001808;28;20482;-72
2023/04/07 12:31:24;;;;;;;10.30;5.63;;;;;;;;;;5011777;28;20144;-72
2023/04/07 12:33:50;;;;;;;8.35;4.78;;;;;;;;;;5004503;28;20030;-72
2023/04/07 12:36:16;;;;;;;8.68;5.10;;;;;;;;;;5008590;28;20416;-71
2023/04/07 12:38:42;;;;;;;6.88;4.88;;;;;;;;;;4995818;28;20034;-71
2023/04/07 12:41:08;;;;;;;8.63;5.30;;;;;;;;;;5011676;28;20050;-72
2023/04/07 12:43:34;;;;;;;8.45;5.80;;;10.10;99.90;;;;;;5011990;28;20026;-71
2023/04/07 12:45:59;;;;;;;7.85;5.57;;;10.10;99.90;;;;;;5007939;28;20032;-72
2023/04/07 12:48:28;;;;;;;10.75;6.40;;;10.10;99.90;;;;;;4996119;28;20457;-71